Airfield :
LOGIN :

Register | Disclaimer

   EN    FR    IT 

 










Legend :    VFR   Marginal VFR   IFR   Intensive IFR   Very Intensive IFR
Visi :
Ceiling :
>= 8 km
>= 3000ft
5 to 8 km
1000 to 3000 ft
1500m to 5 km
500 to 1000 ft
800 to 1500m
200 to 500 ft
< 800m
< 200 ft
Symbols :   Thunderstorms  Fog  Heavy snow  Heavy precipitations  Wind > 20 kt
SIGMETs :     Misc.  Thunderstorms  Icing  Turbulence  Mountain Waves  Volcanic Ashes







- Airport Elevation : 386 ft
- IATA code : QOE


ETNN - Nörvenich Airforce Base

CURRENT METAR :
  • 231420Z 30014KT 9999 SCT040 BKN280 22/12 Q1019 BLU+BLU+ TEMPO BLU

EXPIRED METARs :
  • 231320Z 30013KT 9999 BKN050 BKN250 22/11 Q1019 BLU BLU+ TEMPO BLU
  • 231220Z 29015G27KT 9999 FEW044 BKN250 22/11 Q1018 BLU+BLU+

TAF TAF ETNN
Valid from the 23 at 14:00 until the 23 at 23:00 UTC


231313Z 2314/2323 29010G20KT 9999 NSW FEW060 BKN300
TEMPO 2314/2317 31015G25KT 9999 NSW BKN050 SCT150 BKN250 BY ETGL
No reported NOTAMs for that airfield.



MET'MAP, your aeronautical weather chart ! - Copyright ORBIFLY December 2007 - Disclaimer

ORBIFLY MET'MAP TEAM :

Programming & Development : Alexandra Zaïnal
Concept & Development : Baudouin d'Aumeries
Co-Development & Prog : Marc-Olivier Méhu
Technical & hardware support : Manuel Goepfert

Contact : metmap@orbifly.com




SOURCES & CREDITS :

   NOAA